createdAt,value
2023-05-05T03:46:02.174Z,11.46
2023-05-05T03:49:05.715Z,11.46
2023-05-05T03:52:08.631Z,10.96
2023-05-05T03:55:11.978Z,10.95
2023-05-05T03:58:14.394Z,11.03
2023-05-05T04:01:17.788Z,11.07
2023-05-05T04:04:21.367Z,11.15
2023-05-05T04:07:24.036Z,11.21
2023-05-05T04:10:26.989Z,11.33
2023-05-05T04:13:29.841Z,11.46
2023-05-05T04:16:32.612Z,11.49
2023-05-05T04:19:35.413Z,11.54
2023-05-05T04:22:38.563Z,11.58
2023-05-05T04:25:41.190Z,11.67
2023-05-05T04:28:45.455Z,11.76
2023-05-05T04:31:48.310Z,11.84
2023-05-05T04:34:52.342Z,11.92
2023-05-05T04:37:55.590Z,11.96
2023-05-05T04:40:59.970Z,11.98
2023-05-05T04:44:02.916Z,12.09
2023-05-05T04:47:05.870Z,12.16
2023-05-05T04:50:09.900Z,12.26
2023-05-05T04:53:13.018Z,12.36
2023-05-05T04:56:15.628Z,12.43
2023-05-05T04:59:18.276Z,12.53
2023-05-05T05:02:21.028Z,12.58
2023-05-05T05:05:25.138Z,12.70
2023-05-05T05:08:27.899Z,12.77
2023-05-05T05:11:31.050Z,12.82
2023-05-05T05:14:39.892Z,12.82
2023-05-05T05:17:42.833Z,12.92
2023-05-05T05:20:45.507Z,13.06
2023-05-05T05:23:48.711Z,13.20
2023-05-05T05:26:51.675Z,13.33
2023-05-05T05:29:54.527Z,13.56
2023-05-05T05:32:57.124Z,13.76
2023-05-05T05:35:59.947Z,13.89
2023-05-05T05:39:02.493Z,14.11
2023-05-05T05:42:05.523Z,14.43
2023-05-05T05:45:08.716Z,14.67
2023-05-05T05:48:11.475Z,14.98
2023-05-05T05:51:14.050Z,15.13
2023-05-05T05:54:16.820Z,15.27
2023-05-05T05:57:22.668Z,15.28
2023-05-05T06:00:26.494Z,15.33
2023-05-05T06:03:30.165Z,15.53
2023-05-05T06:06:32.611Z,15.58
2023-05-05T06:09:36.283Z,15.59
2023-05-05T06:12:39.414Z,15.64
2023-05-05T06:15:42.628Z,15.73
2023-05-05T06:18:45.482Z,15.74
2023-05-05T06:21:48.270Z,15.75
2023-05-05T06:24:51.450Z,15.78
2023-05-05T06:27:54.662Z,16.01
2023-05-05T06:30:57.018Z,16.16
2023-05-05T06:33:59.658Z,16.27
2023-05-05T06:37:02.254Z,16.34
2023-05-05T06:40:06.750Z,16.43
2023-05-05T06:43:09.409Z,16.53
2023-05-05T06:46:12.472Z,16.56
2023-05-05T06:49:14.927Z,17.00
2023-05-05T06:52:17.770Z,17.31
2023-05-05T06:55:20.341Z,17.26
2023-05-05T06:58:23.041Z,17.01
2023-05-05T07:01:25.514Z,17.12
2023-05-05T07:04:28.134Z,17.33
2023-05-05T07:07:31.723Z,17.59
2023-05-05T07:10:34.807Z,17.80
2023-05-05T07:13:37.279Z,17.80
2023-05-05T07:16:40.446Z,17.77
2023-05-05T07:19:44.123Z,17.75
2023-05-05T07:22:46.839Z,17.61
2023-05-05T07:25:49.281Z,17.46
2023-05-05T07:28:52.391Z,17.58
2023-05-05T07:31:55.032Z,17.50
2023-05-05T07:34:57.848Z,17.50
2023-05-05T07:38:00.498Z,17.55
2023-05-05T07:41:03.405Z,17.63
2023-05-05T07:44:06.013Z,17.73
2023-05-05T07:47:09.033Z,17.82
2023-05-05T07:50:11.509Z,17.86
2023-05-05T07:53:15.320Z,17.93
2023-05-05T07:56:18.151Z,18.00
2023-05-05T07:59:21.608Z,17.94
2023-05-05T08:02:24.013Z,18.21
2023-05-05T08:05:27.014Z,18.30
2023-05-05T08:08:29.640Z,18.41
2023-05-05T08:11:32.573Z,18.36
2023-05-05T08:14:36.556Z,18.49
2023-05-05T08:17:50.146Z,18.67
2023-05-05T08:20:53.063Z,18.89
2023-05-05T08:23:55.760Z,18.90
2023-05-05T08:26:58.095Z,18.86
2023-05-05T08:30:01.977Z,18.97
2023-05-05T08:33:04.888Z,19.09
2023-05-05T08:36:09.191Z,19.06
2023-05-05T08:39:11.715Z,19.24
2023-05-05T08:42:22.454Z,19.27
2023-05-05T08:45:39.403Z,19.38
2023-05-05T08:48:44.162Z,19.48
2023-05-05T08:51:47.748Z,19.42
2023-05-05T08:54:57.945Z,19.55
2023-05-05T08:58:04.156Z,19.96
2023-05-05T09:01:07.690Z,20.51
2023-05-05T09:04:10.928Z,21.22
2023-05-05T09:07:13.690Z,21.63
2023-05-05T09:10:16.442Z,22.29
2023-05-05T09:13:28.481Z,22.45
2023-05-05T09:16:30.914Z,22.70
2023-05-05T09:19:33.720Z,22.53
2023-05-05T09:22:38.746Z,21.90
2023-05-05T09:25:45.014Z,21.59
2023-05-05T09:28:52.456Z,21.38
2023-05-05T09:32:08.865Z,21.19
2023-05-05T09:35:13.489Z,21.54
2023-05-05T09:38:17.715Z,21.45
2023-05-05T09:41:37.119Z,21.63
2023-05-05T09:44:40.701Z,21.82
2023-05-05T09:47:43.187Z,21.79
2023-05-05T09:50:46.219Z,22.08
2023-05-05T09:53:48.579Z,22.24
2023-05-05T09:56:52.365Z,22.30
2023-05-05T09:59:57.464Z,22.37
2023-05-05T10:03:02.791Z,22.04
2023-05-05T10:06:07.743Z,21.59
2023-05-05T10:09:10.564Z,21.12
2023-05-05T10:12:13.257Z,21.00
2023-05-05T10:15:15.989Z,21.30
2023-05-05T10:18:27.056Z,21.06
2023-05-05T10:21:35.719Z,21.51
2023-05-05T10:24:50.740Z,21.99
2023-05-05T10:27:59.122Z,22.35
2023-05-05T10:31:09.875Z,22.23
2023-05-05T10:34:38.340Z,22.30
2023-05-05T10:37:41.625Z,21.92
2023-05-05T10:40:48.653Z,21.49
2023-05-05T10:43:55.179Z,21.68
2023-05-05T10:46:58.168Z,22.24
2023-05-05T10:50:21.581Z,21.93
2023-05-05T10:53:28.720Z,21.84
2023-05-05T10:56:33.800Z,22.05
2023-05-05T10:59:39.132Z,22.46
2023-05-05T11:02:42.071Z,22.20
2023-05-05T11:06:09.304Z,22.36
2023-05-05T11:09:28.528Z,22.44
2023-05-05T11:12:32.738Z,22.37
2023-05-05T11:15:37.970Z,22.59
2023-05-05T11:22:04.427Z,22.76
2023-05-05T11:25:40.686Z,22.72
2023-05-05T11:28:57.461Z,22.84
2023-05-05T11:32:14.027Z,22.71
2023-05-05T11:35:16.728Z,22.60
2023-05-05T11:38:23.378Z,22.73
2023-05-05T11:41:32.297Z,22.65
2023-05-05T11:44:35.734Z,22.76
2023-05-05T11:47:38.947Z,22.92
2023-05-05T11:50:41.875Z,22.97
2023-05-05T11:53:46.783Z,23.10
2023-05-05T11:56:55.518Z,22.90
2023-05-05T12:00:09.190Z,23.06
2023-05-05T12:03:12.793Z,23.22
2023-05-05T12:06:15.654Z,22.98
2023-05-05T12:09:19.617Z,23.11
2023-05-05T12:12:21.988Z,23.07
2023-05-05T12:15:29.542Z,22.96
2023-05-05T12:18:32.167Z,23.05
2023-05-05T12:21:36.393Z,22.82
2023-05-05T12:24:39.189Z,22.60
2023-05-05T12:27:52.055Z,22.37
2023-05-05T12:30:58.999Z,22.51
2023-05-05T12:34:03.527Z,22.51
2023-05-05T12:37:06.059Z,22.48
2023-05-05T12:40:47.102Z,22.47
2023-05-05T12:43:58.851Z,22.63
2023-05-05T12:47:01.644Z,22.47
2023-05-05T12:50:04.413Z,22.50
2023-05-05T12:53:07.390Z,22.60
2023-05-05T12:56:37.569Z,22.68
2023-05-05T12:59:40.451Z,22.93
2023-05-05T13:02:42.914Z,23.02
2023-05-05T13:05:45.967Z,23.09
2023-05-05T13:08:48.409Z,23.19
2023-05-05T13:11:51.288Z,23.23
2023-05-05T13:14:53.811Z,22.85
2023-05-05T13:18:00.824Z,22.61
2023-05-05T13:21:03.196Z,22.71
2023-05-05T13:24:21.419Z,22.97
2023-05-05T13:27:26.084Z,23.27
2023-05-05T13:30:29.009Z,23.22
2023-05-05T13:33:35.153Z,23.13
2023-05-05T13:36:38.600Z,23.26
2023-05-05T13:39:40.921Z,23.17
2023-05-05T13:42:44.173Z,23.19
2023-05-05T13:45:47.084Z,23.16
2023-05-05T13:48:52.495Z,23.25
2023-05-05T13:51:58.628Z,23.34
2023-05-05T13:55:01.306Z,23.45
2023-05-05T13:58:04.150Z,23.34
2023-05-05T14:01:06.927Z,23.18
2023-05-05T14:04:09.781Z,23.27
2023-05-05T14:07:12.157Z,23.40
2023-05-05T14:10:14.972Z,23.21
2023-05-05T14:13:17.423Z,23.17
2023-05-05T14:16:22.499Z,23.30
2023-05-05T14:19:24.976Z,23.06
2023-05-05T14:22:27.655Z,23.03
2023-05-05T14:25:30.370Z,22.96
2023-05-05T14:28:33.283Z,23.07
2023-05-05T14:31:36.708Z,23.00
2023-05-05T14:34:39.588Z,22.95
2023-05-05T14:37:42.033Z,23.03
2023-05-05T14:40:44.572Z,23.10
2023-05-05T14:43:46.818Z,23.07
2023-05-05T14:46:51.059Z,23.10
2023-05-05T14:49:53.727Z,23.00
2023-05-05T14:52:56.536Z,23.04
2023-05-05T14:55:58.836Z,23.02
2023-05-05T14:59:01.643Z,23.07
2023-05-05T15:02:04.290Z,23.06
2023-05-05T15:05:07.939Z,22.94
2023-05-05T15:08:10.761Z,22.90
2023-05-05T15:11:13.782Z,22.96
2023-05-05T15:14:16.167Z,23.17
2023-05-05T15:17:18.865Z,23.09
2023-05-05T15:20:21.474Z,23.11
2023-05-05T15:23:24.609Z,23.04
2023-05-05T15:26:27.313Z,22.95
2023-05-05T15:29:30.352Z,22.99
2023-05-05T15:32:33.062Z,23.00
2023-05-05T15:35:36.267Z,22.99
2023-05-05T15:38:44.353Z,22.94
2023-05-05T15:41:47.017Z,22.85
2023-05-05T15:44:49.895Z,22.89
2023-05-05T15:47:53.641Z,22.85
